BI03 weather

Biella-Cerrione Airport
Biella (BI), Piedmont, Italy

Public forecast

Using degrees Celsius for public forecast. Weather courtesy of forecast.io.

Closest aviation weather report (METAR) to Biella-Cerrione Airport

Report is more than 6 hours old.

Closest report is Cameri Air Base [MIL], 23.9 nm (44.3 km) E. Retrieved 2020/07/03 17:55 UTC (2 days ago):

LIMN 031755Z 08010KT 9999 -TSRA SCT020CB BKN030 18/17 Q1013 RMK OVC VIS MIN 9999 BLU

Closest aviation forecast (TAF) to Biella-Cerrione Airport

Forecast is more than 12 hours old.

Closest forecast is Cameri Air Base [MIL], 23.9 nm (44.3 km) E. Retrieved 2010/11/18 12:24 UTC (10 years ago):

TAF TAF LIMN 181100Z 1812/1921 VRB03KT 1500 RA BR BKN030